Suula — OJKZ — position and weather

sailwx.info

Track history (hours):
 
Tides and Currents Weather Stations Pressure Air Temp Water Temp Dewpoint Dewpoint Depression Visibility Wind Speed Wind Dir Waves Ship Positions

Suula

Last reported at 2016-May-05 13:31 UTC. Time now 2016-May-05 14:17 UTC.
Position N 60°31' E 027°10'.

Length 140 m; draft 6.5 m.

Type: Tanker. MMSI: 230956996.

Date/timePositionNaut miles runAvg speedWind from/ knotsBaromVisibWave heightAir tempDewpointWater temp
2016-May-05 13:31N 60°31' E 027°10'0 0.0
2016-May-05 12:31N 60°31' E 027°10'0 0.0
2016-May-05 11:31N 60°31' E 027°10'0 0.0
2016-May-05 10:31N 60°31' E 027°10'0 0.0
2016-May-05 09:31N 60°31' E 027°10'0 0.0
2016-May-05 08:31N 60°31' E 027°10'0 0.0
2016-May-05 07:31N 60°31' E 027°10'0 0.0
2016-May-05 06:31N 60°31' E 027°10'0 0.0
2016-May-05 05:28N 60°31' E 027°10'0 0.0
2016-May-05 04:31N 60°31' E 027°10'0 0.0
2016-May-05 03:31N 60°31' E 027°10'0 0.0
2016-May-05 02:31N 60°31' E 027°10'0 0.0
2016-May-05 01:31N 60°31' E 027°10'0 0.0
2016-May-05 00:31N 60°31' E 027°10'0 0.0
2016-May-04 23:31N 60°31' E 027°10'0 0.0
2016-May-04 22:31N 60°31' E 027°10'0 0.0
2016-May-04 21:31N 60°31' E 027°10'4 3.9
2016-May-04 20:33N 60°28' E 027°09'1110.8
2016-May-04 19:33N 60°22' E 026°50'1413.7
2016-May-04 18:33N 60°15' E 026°26'1813.8
2016-May-04 17:14N 59°60' E 026°06'6714.2
2016-May-04 12:32N 59°40' E 023°59'1414.8
2016-May-04 11:33N 59°35' E 023°32'1714.7
2016-May-04 10:24N 59°30' E 022°60'1614.6
2016-May-04 09:17N 59°25' E 022°30'1413.9
2016-May-04 08:18N 59°26' E 022°03'1114.3
2016-May-04 07:33N 59°30' E 021°44'1414.2
2016-May-04 06:33N 59°40' E 021°23'1212.3
2016-May-04 05:33N 59°52' E 021°27'10 0.6
2016-May-03 12:25N 59°58' E 021°42'1012.1
2016-May-03 11:33N 59°51' E 021°26'1110.7
2016-May-03 10:33N 59°41' E 021°20'9 9.3
2016-May-03 09:33N 59°34' E 021°31'9 9.1
2016-May-03 08:33N 59°31' E 021°48'10 9.7
2016-May-03 07:34N 59°32' E 022°07'2311.5
2016-May-03 05:33N 59°37' E 022°52'1312.5
2016-May-03 04:33N 59°39' E 023°16'1312.5
2016-May-03 03:33N 59°41' E 023°41'1212.2
2016-May-03 02:33N 59°44' E 024°05'56 2.7
2016-May-02 05:26N 60°18' E 025°33'0 0.0
2016-May-02 02:32N 60°18' E 025°33'0 0.0
2016-May-02 01:26N 60°18' E 025°33'0 0.0
2016-May-01 22:26N 60°18' E 025°33'0 0.0
2016-May-01 02:19N 60°18' E 025°33'0 0.0
2016-May-01 01:28N 60°18' E 025°33'0 0.0
2016-May-01 00:25N 60°18' E 025°33'57 3.3
2016-Apr-30 07:20N 59°41' E 024°07'1216.1
2016-Apr-30 06:33N 59°37' E 023°43'3415.9
2016-Apr-30 04:26N 59°26' E 022°40'1415.7
2016-Apr-30 03:33N 59°21' E 022°15'2015.9
2016-Apr-30 02:16N 59°16' E 021°36'  
2016-Apr-27 10:31N 55°37' E 015°21'1313.3
2016-Apr-27 09:33N 55°31' E 015°00'1313.4
2016-Apr-27 08:33N 55°25' E 014°40'1313.3
2016-Apr-27 07:33N 55°15' E 014°25'1212.3
2016-Apr-27 06:33N 55°10' E 014°05'1313.1
2016-Apr-27 05:33N 55°09' E 013°42'2512.3
2016-Apr-27 03:33N 55°14' E 012°60'1312.9
2016-Apr-27 02:33N 55°18' E 012°38'1312.7
2016-Apr-27 01:33N 55°31' E 012°44'1010.1
2016-Apr-27 00:33N 55°38' E 012°55'3 3.3
2016-Apr-26 23:33N 55°38' E 013°01'0 0.0
2016-Apr-26 22:33N 55°38' E 013°01'0 0.0
2016-Apr-26 21:33N 55°38' E 013°01'0 0.0
2016-Apr-26 20:33N 55°38' E 013°01'0 0.0
2016-Apr-26 19:33N 55°38' E 013°01'0 0.0
2016-Apr-26 18:33N 55°38' E 013°01'0 0.0
2016-Apr-26 17:33N 55°38' E 013°01'0 0.0
2016-Apr-26 16:33N 55°38' E 013°01'0 0.0
2016-Apr-26 15:33N 55°38' E 013°01'0 0.0
2016-Apr-26 14:33N 55°38' E 013°01'0 0.0
2016-Apr-26 13:33N 55°38' E 013°01'0 0.0
2016-Apr-26 12:33N 55°38' E 013°01'0 0.0
2016-Apr-26 11:33N 55°38' E 013°01'0 0.0
2016-Apr-26 10:33N 55°38' E 013°01'0 0.0
2016-Apr-26 09:33N 55°38' E 013°01'0 0.0
2016-Apr-26 08:33N 55°38' E 013°01'0 0.0
2016-Apr-26 07:33N 55°38' E 013°01'0 0.0
2016-Apr-26 06:33N 55°38' E 013°01'0 0.0
2016-Apr-26 05:33N 55°38' E 013°01'0 0.0
2016-Apr-26 04:30N 55°38' E 013°01'0 0.0
2016-Apr-26 03:33N 55°38' E 013°01'0 0.0
2016-Apr-26 02:33N 55°38' E 013°01'0 0.0
2016-Apr-26 01:33N 55°38' E 013°01'0 0.0
2016-Apr-26 00:33N 55°38' E 013°01'0 0.0
2016-Apr-25 23:33N 55°38' E 013°01'5 5.2
2016-Apr-25 22:33N 55°36' E 012°53'1111.1
2016-Apr-25 21:33N 55°27' E 012°42'1111.0
2016-Apr-25 20:34N 55°17' E 012°48'1313.3
2016-Apr-25 19:33N 55°15' E 013°12'1413.6
2016-Apr-25 18:33N 55°14' E 013°35'1413.9
2016-Apr-25 17:33N 55°14' E 013°60'1312.7
2016-Apr-25 16:33N 55°17' E 014°21'1413.6
2016-Apr-25 15:33N 55°27' E 014°37'1313.4
2016-Apr-25 14:33N 55°33' E 014°58'  
Track history (hours):
 
Tides and Currents Weather Stations Pressure Air Temp Water Temp Dewpoint Dewpoint Depression Visibility Wind Speed Wind Dir Waves Ship Positions

Suula

Last reported at 2016-May-05 13:31 UTC. Time now 2016-May-05 14:17 UTC.
Position N 60°31' E 027°10'.

Length 140 m; draft 6.5 m.

Type: Tanker. MMSI: 230956996.

Date/timePositionNaut miles runAvg speedWind from/ knotsBaromVisibWave heightAir tempDewpointWater temp
2016-May-05 13:31N 60°31' E 027°10'0 0.0
2016-May-05 12:31N 60°31' E 027°10'0 0.0
2016-May-05 11:31N 60°31' E 027°10'0 0.0
2016-May-05 10:31N 60°31' E 027°10'0 0.0
2016-May-05 09:31N 60°31' E 027°10'0 0.0
2016-May-05 08:31N 60°31' E 027°10'0 0.0
2016-May-05 07:31N 60°31' E 027°10'0 0.0
2016-May-05 06:31N 60°31' E 027°10'0 0.0
2016-May-05 05:28N 60°31' E 027°10'0 0.0
2016-May-05 04:31N 60°31' E 027°10'0 0.0
2016-May-05 03:31N 60°31' E 027°10'0 0.0
2016-May-05 02:31N 60°31' E 027°10'0 0.0
2016-May-05 01:31N 60°31' E 027°10'0 0.0
2016-May-05 00:31N 60°31' E 027°10'0 0.0
2016-May-04 23:31N 60°31' E 027°10'0 0.0
2016-May-04 22:31N 60°31' E 027°10'0 0.0
2016-May-04 21:31N 60°31' E 027°10'4 3.9
2016-May-04 20:33N 60°28' E 027°09'1110.8
2016-May-04 19:33N 60°22' E 026°50'1413.7
2016-May-04 18:33N 60°15' E 026°26'1813.8
2016-May-04 17:14N 59°60' E 026°06'6714.2
2016-May-04 12:32N 59°40' E 023°59'1414.8
2016-May-04 11:33N 59°35' E 023°32'1714.7
2016-May-04 10:24N 59°30' E 022°60'1614.6
2016-May-04 09:17N 59°25' E 022°30'1413.9
2016-May-04 08:18N 59°26' E 022°03'1114.3
2016-May-04 07:33N 59°30' E 021°44'1414.2
2016-May-04 06:33N 59°40' E 021°23'1212.3
2016-May-04 05:33N 59°52' E 021°27'10 0.6
2016-May-03 12:25N 59°58' E 021°42'1012.1
2016-May-03 11:33N 59°51' E 021°26'1110.7
2016-May-03 10:33N 59°41' E 021°20'9 9.3
2016-May-03 09:33N 59°34' E 021°31'9 9.1
2016-May-03 08:33N 59°31' E 021°48'10 9.7
2016-May-03 07:34N 59°32' E 022°07'2311.5
2016-May-03 05:33N 59°37' E 022°52'1312.5
2016-May-03 04:33N 59°39' E 023°16'1312.5
2016-May-03 03:33N 59°41' E 023°41'1212.2
2016-May-03 02:33N 59°44' E 024°05'56 2.7
2016-May-02 05:26N 60°18' E 025°33'0 0.0
2016-May-02 02:32N 60°18' E 025°33'0 0.0
2016-May-02 01:26N 60°18' E 025°33'0 0.0
2016-May-01 22:26N 60°18' E 025°33'0 0.0
2016-May-01 02:19N 60°18' E 025°33'0 0.0
2016-May-01 01:28N 60°18' E 025°33'0 0.0
2016-May-01 00:25N 60°18' E 025°33'57 3.3
2016-Apr-30 07:20N 59°41' E 024°07'1216.1
2016-Apr-30 06:33N 59°37' E 023°43'3415.9
2016-Apr-30 04:26N 59°26' E 022°40'1415.7
2016-Apr-30 03:33N 59°21' E 022°15'2015.9
2016-Apr-30 02:16N 59°16' E 021°36'  
2016-Apr-27 10:31N 55°37' E 015°21'1313.3
2016-Apr-27 09:33N 55°31' E 015°00'1313.4
2016-Apr-27 08:33N 55°25' E 014°40'1313.3
2016-Apr-27 07:33N 55°15' E 014°25'1212.3
2016-Apr-27 06:33N 55°10' E 014°05'1313.1
2016-Apr-27 05:33N 55°09' E 013°42'2512.3
2016-Apr-27 03:33N 55°14' E 012°60'1312.9
2016-Apr-27 02:33N 55°18' E 012°38'1312.7
2016-Apr-27 01:33N 55°31' E 012°44'1010.1
2016-Apr-27 00:33N 55°38' E 012°55'3 3.3
2016-Apr-26 23:33N 55°38' E 013°01'0 0.0
2016-Apr-26 22:33N 55°38' E 013°01'0 0.0
2016-Apr-26 21:33N 55°38' E 013°01'0 0.0
2016-Apr-26 20:33N 55°38' E 013°01'0 0.0
2016-Apr-26 19:33N 55°38' E 013°01'0 0.0
2016-Apr-26 18:33N 55°38' E 013°01'0 0.0
2016-Apr-26 17:33N 55°38' E 013°01'0 0.0
2016-Apr-26 16:33N 55°38' E 013°01'0 0.0
2016-Apr-26 15:33N 55°38' E 013°01'0 0.0
2016-Apr-26 14:33N 55°38' E 013°01'0 0.0
2016-Apr-26 13:33N 55°38' E 013°01'0 0.0
2016-Apr-26 12:33N 55°38' E 013°01'0 0.0
2016-Apr-26 11:33N 55°38' E 013°01'0 0.0
2016-Apr-26 10:33N 55°38' E 013°01'0 0.0
2016-Apr-26 09:33N 55°38' E 013°01'0 0.0
2016-Apr-26 08:33N 55°38' E 013°01'0 0.0
2016-Apr-26 07:33N 55°38' E 013°01'0 0.0
2016-Apr-26 06:33N 55°38' E 013°01'0 0.0
2016-Apr-26 05:33N 55°38' E 013°01'0 0.0
2016-Apr-26 04:30N 55°38' E 013°01'0 0.0
2016-Apr-26 03:33N 55°38' E 013°01'0 0.0
2016-Apr-26 02:33N 55°38' E 013°01'0 0.0
2016-Apr-26 01:33N 55°38' E 013°01'0 0.0
2016-Apr-26 00:33N 55°38' E 013°01'0 0.0
2016-Apr-25 23:33N 55°38' E 013°01'5 5.2
2016-Apr-25 22:33N 55°36' E 012°53'1111.1
2016-Apr-25 21:33N 55°27' E 012°42'1111.0
2016-Apr-25 20:34N 55°17' E 012°48'1313.3
2016-Apr-25 19:33N 55°15' E 013°12'1413.6
2016-Apr-25 18:33N 55°14' E 013°35'1413.9
2016-Apr-25 17:33N 55°14' E 013°60'1312.7
2016-Apr-25 16:33N 55°17' E 014°21'1413.6
2016-Apr-25 15:33N 55°27' E 014°37'1313.4
2016-Apr-25 14:33N 55°33' E 014°58'  

Dump ship's entire track history